Time;durP1;ratioP1;P1;durP2;ratioP2;P2;SDS_P1;SDS_P2;PMS_P1;PMS_P2;Temp;Humidity;BMP_temperature;BMP_pressure;BME280_temperature;BME280_humidity;BME280_pressure;Samples;Min_cycle;Max_cycle;Signal;HPM_P1;HPM_P2
2024/01/19 04:01:10;;;;;;;4.15;3.28;;;21.70;24.20;;;;;;5780422;23;45707;-85
2024/01/19 04:03:36;;;;;;;5.30;3.50;;;21.70;24.20;;;;;;4995007;28;45679;-83
2024/01/19 04:06:02;;;;;;;5.38;3.30;;;21.70;24.20;;;;;;4971492;28;45075;-84
2024/01/19 04:08:37;;;;;;;4.28;3.13;;;21.70;24.20;;;;;;4952347;28;45046;-85
2024/01/19 04:11:03;;;;;;;4.80;3.30;;;21.70;24.20;;;;;;4981212;28;46188;-85
2024/01/19 04:13:28;;;;;;;4.90;3.00;;;21.70;24.20;;;;;;4962292;28;45659;-83
2024/01/19 04:15:54;;;;;;;4.73;3.30;;;21.70;24.20;;;;;;4970235;28;45087;-83
2024/01/19 04:18:19;;;;;;;3.60;3.13;;;21.70;24.20;;;;;;4970562;28;45328;-84
2024/01/19 04:20:45;;;;;;;4.73;3.20;;;21.70;24.20;;;;;;4978539;28;45400;-83
2024/01/19 04:23:10;;;;;;;4.53;3.17;;;21.70;24.20;;;;;;4970140;28;45549;-84
2024/01/19 04:25:36;;;;;;;3.70;3.10;;;21.70;24.20;;;;;;4986539;28;45242;-84
2024/01/19 04:28:02;;;;;;;4.38;3.45;;;21.70;24.20;;;;;;4974874;28;45249;-84
2024/01/19 04:30:28;;;;;;;4.15;3.00;;;21.70;24.20;;;;;;4962348;28;46340;-83
2024/01/19 04:32:54;;;;;;;3.50;3.10;;;21.70;24.20;;;;;;4990675;28;44919;-84
2024/01/19 04:35:20;;;;;;;4.28;3.53;;;21.70;24.20;;;;;;4971031;28;45078;-84
2024/01/19 04:37:46;;;;;;;4.43;3.37;;;21.70;24.20;;;;;;4966757;28;46256;-84
2024/01/19 04:40:12;;;;;;;4.45;3.30;;;21.70;24.30;;;;;;4952666;28;46243;-84
2024/01/19 04:42:38;;;;;;;4.63;3.53;;;21.70;24.30;;;;;;4954464;28;45406;-84
2024/01/19 04:45:05;;;;;;;4.60;3.40;;;21.60;24.20;;;;;;4995942;28;45446;-84
2024/01/19 04:47:31;;;;;;;4.18;3.30;;;21.60;24.20;;;;;;4982964;28;45036;-82
2024/01/19 04:49:56;;;;;;;3.87;3.27;;;21.60;24.20;;;;;;4969126;28;47626;-83
2024/01/19 04:52:22;;;;;;;4.30;3.50;;;21.60;24.20;;;;;;4956312;28;44687;-85
2024/01/19 04:54:48;;;;;;;5.40;3.58;;;21.60;24.20;;;;;;4963500;28;45463;-83
2024/01/19 04:57:13;;;;;;;4.05;3.45;;;21.60;24.20;;;;;;4958980;28;45054;-84
2024/01/19 04:59:39;;;;;;;3.92;3.28;;;21.60;24.20;;;;;;4944113;28;47066;-87
2024/01/19 05:02:04;;;;;;;4.45;3.38;;;21.60;24.20;;;;;;4940341;28;46121;-84
2024/01/19 05:04:30;;;;;;;4.55;3.50;;;21.60;24.30;;;;;;4962179;28;45352;-84
2024/01/19 05:06:56;;;;;;;4.10;3.47;;;21.60;24.30;;;;;;4986055;28;45216;-83
2024/01/19 05:09:22;;;;;;;4.53;3.53;;;21.60;24.30;;;;;;4958863;28;45913;-85
2024/01/19 05:11:48;;;;;;;4.57;3.40;;;21.60;24.30;;;;;;4945679;28;45584;-84
2024/01/19 05:14:14;;;;;;;4.57;3.60;;;21.60;24.30;;;;;;4958509;28;45388;-83
2024/01/19 05:16:40;;;;;;;4.93;3.50;;;21.60;24.70;;;;;;4982108;28;45603;-83
2024/01/19 05:19:05;;;;;;;4.22;3.38;;;21.50;24.20;;;;;;4972841;28;45971;-84
2024/01/19 05:21:31;;;;;;;4.15;3.75;;;21.50;24.20;;;;;;4940805;28;45337;-82
2024/01/19 05:23:57;;;;;;;3.85;3.30;;;21.50;24.30;;;;;;4981103;28;45478;-84
2024/01/19 05:26:25;;;;;;;4.17;3.40;;;21.60;24.30;;;;;;4977052;28;45289;-83
2024/01/19 05:28:51;;;;;;;4.60;3.72;;;21.50;24.30;;;;;;4987593;28;46796;-84
2024/01/19 05:31:17;;;;;;;4.37;3.70;;;21.50;24.30;;;;;;4963247;28;45352;-82
2024/01/19 05:33:43;;;;;;;3.90;3.50;;;21.50;24.30;;;;;;4986069;28;45317;-85
2024/01/19 05:36:09;;;;;;;4.40;3.87;;;21.50;24.30;;;;;;4967183;28;45312;-84
2024/01/19 05:38:36;;;;;;;4.03;3.60;;;21.50;24.30;;;;;;4983934;28;45983;-83
2024/01/19 05:41:02;;;;;;;5.10;3.53;;;21.50;24.30;;;;;;4994625;28;45420;-83
2024/01/19 05:43:32;;;;;;;4.30;3.60;;;21.50;24.30;;;;;;4988459;28;58970;-84
2024/01/19 05:46:01;;;;;;;4.70;3.73;;;21.50;24.30;;;;;;4961755;28;45333;-84
2024/01/19 05:48:27;;;;;;;4.50;3.70;;;21.50;24.30;;;;;;4950247;28;46743;-86
2024/01/19 05:50:53;;;;;;;4.00;3.60;;;21.50;24.30;;;;;;4958186;28;45742;-84
2024/01/19 05:53:19;;;;;;;4.45;3.63;;;21.40;24.30;;;;;;4940272;28;45552;-84
2024/01/19 05:55:44;;;;;;;4.82;4.00;;;21.40;24.30;;;;;;4956453;28;45172;-85
2024/01/19 05:58:10;;;;;;;4.80;3.90;;;21.40;24.30;;;;;;4951865;28;46152;-84
2024/01/19 06:00:36;;;;;;;4.75;3.83;;;21.40;24.30;;;;;;4977973;28;45359;-82
2024/01/19 06:03:03;;;;;;;3.75;3.40;;;21.40;24.40;;;;;;4966954;28;44807;-85
2024/01/19 06:05:29;;;;;;;4.53;3.85;;;21.40;24.30;;;;;;4978480;28;45007;-83
2024/01/19 06:07:55;;;;;;;4.27;3.77;;;21.40;24.40;;;;;;4974186;28;45949;-83
2024/01/19 06:10:20;;;;;;;4.03;3.63;;;21.40;24.50;;;;;;4965213;28;45199;-83
2024/01/19 06:12:46;;;;;;;4.53;3.73;;;21.40;24.40;;;;;;4975228;28;45221;-84
2024/01/19 06:15:12;;;;;;;4.53;3.73;;;21.40;24.40;;;;;;4946377;28;44936;-84
2024/01/19 06:17:41;;;;;;;4.47;3.80;;;21.40;24.40;;;;;;4976955;28;46429;-83
2024/01/19 06:20:07;;;;;;;4.17;3.57;;;21.40;24.40;;;;;;4947658;28;45446;-85
2024/01/19 06:22:33;;;;;;;4.25;3.85;;;21.40;24.40;;;;;;4981247;28;45231;-82
2024/01/19 06:24:59;;;;;;;4.32;3.53;;;21.40;24.40;;;;;;4960710;28;46251;-83
2024/01/19 06:27:25;;;;;;;4.28;3.55;;;21.40;24.40;;;;;;4952607;28;46730;-82
2024/01/19 06:29:51;;;;;;;4.40;3.65;;;21.30;24.40;;;;;;4965562;28;44882;-82
2024/01/19 06:32:21;;;;;;;4.43;3.60;;;21.30;24.40;;;;;;4958720;28;45164;-82
2024/01/19 06:34:50;;;;;;;3.80;3.35;;;21.30;24.40;;;;;;4979894;28;45149;-84
2024/01/19 06:37:16;;;;;;;4.70;4.07;;;21.30;24.40;;;;;;4961543;28;46881;-83
2024/01/19 06:39:44;;;;;;;4.18;3.53;;;21.30;24.40;;;;;;4973792;28;45482;-83
2024/01/19 06:42:10;;;;;;;4.32;3.92;;;21.30;24.40;;;;;;4968498;28;45437;-84
2024/01/19 06:44:36;;;;;;;3.88;3.47;;;21.30;24.40;;;;;;4977287;28;44754;-81
2024/01/19 06:47:02;;;;;;;4.20;3.80;;;21.30;24.40;;;;;;4983500;28;45645;-82
2024/01/19 06:49:29;;;;;;;5.00;4.03;;;21.30;24.40;;;;;;4963356;28;45513;-83
2024/01/19 06:51:55;;;;;;;4.40;3.42;;;21.30;24.40;;;;;;4978853;28;45444;-82
2024/01/19 06:54:20;;;;;;;4.10;3.43;;;21.20;24.40;;;;;;4973944;28;44986;-83
2024/01/19 06:56:47;;;;;;;4.90;3.92;;;21.20;24.40;;;;;;4961140;28;46653;-82
2024/01/19 06:59:13;;;;;;;4.10;3.50;;;21.30;24.40;;;;;;4981482;28;45435;-82
2024/01/19 07:01:38;;;;;;;4.17;3.60;;;21.20;24.40;;;;;;4967360;28;45488;-83
2024/01/19 07:04:04;;;;;;;4.60;3.43;;;21.20;24.40;;;;;;4964256;28;44821;-84
2024/01/19 07:06:31;;;;;;;4.53;3.97;;;21.20;24.40;;;;;;4982634;28;45567;-83
2024/01/19 07:08:57;;;;;;;4.35;3.55;;;21.20;24.50;;;;;;4973689;28;45665;-82
2024/01/19 07:11:23;;;;;;;4.65;3.90;;;21.20;24.40;;;;;;4977412;28;45268;-82
2024/01/19 07:13:49;;;;;;;3.83;3.42;;;21.20;24.50;;;;;;4986876;28;45548;-84
2024/01/19 07:16:15;;;;;;;4.40;3.90;;;21.20;24.50;;;;;;4964163;28;46407;-81
2024/01/19 07:18:40;;;;;;;4.93;4.00;;;21.20;24.50;;;;;;4977966;28;46284;-83
2024/01/19 07:21:06;;;;;;;4.23;3.83;;;21.20;24.50;;;;;;4955456;28;44872;-82
2024/01/19 07:23:32;;;;;;;4.35;3.95;;;21.20;24.50;;;;;;4976870;28;45233;-83
2024/01/19 07:25:58;;;;;;;4.45;3.90;;;21.20;24.50;;;;;;4967301;28;45703;-83
2024/01/19 07:28:24;;;;;;;4.73;4.10;;;21.10;24.50;;;;;;4980602;28;45191;-83
2024/01/19 07:30:51;;;;;;;4.68;3.90;;;21.10;24.40;;;;;;4963469;28;45955;-82
2024/01/19 07:33:17;;;;;;;4.43;3.92;;;21.10;24.40;;;;;;4983166;28;45549;-83
2024/01/19 07:35:43;;;;;;;4.35;3.70;;;21.10;24.50;;;;;;4948904;28;46523;-82
2024/01/19 07:38:09;;;;;;;4.53;3.73;;;21.10;24.40;;;;;;4968221;28;44995;-82
2024/01/19 07:40:35;;;;;;;4.72;4.10;;;21.10;24.50;;;;;;4955358;28;44976;-83
2024/01/19 07:43:01;;;;;;;5.22;3.80;;;21.10;24.50;;;;;;4959055;28;45119;-82
2024/01/19 07:45:47;;;;;;;4.17;3.70;;;21.10;24.50;;;;;;4979153;28;46051;-83
2024/01/19 07:48:13;;;;;;;4.28;3.63;;;21.10;24.50;;;;;;4975666;28;45517;-83
2024/01/19 07:50:39;;;;;;;4.25;3.60;;;21.10;24.50;;;;;;4967749;28;45207;-83
2024/01/19 07:53:05;;;;;;;4.10;3.70;;;21.10;24.50;;;;;;4969155;28;45524;-81
2024/01/19 07:55:30;;;;;;;4.65;3.90;;;21.00;24.50;;;;;;4979294;28;47094;-83
2024/01/19 07:57:57;;;;;;;4.65;3.85;;;21.10;24.50;;;;;;4961591;28;44876;-82
2024/01/19 08:00:23;;;;;;;4.43;4.00;;;21.00;24.50;;;;;;4957984;28;44909;-81
2024/01/19 08:02:49;;;;;;;4.20;3.80;;;21.00;24.50;;;;;;4985935;28;46309;-83
2024/01/19 08:05:15;;;;;;;4.20;3.78;;;21.00;24.50;;;;;;4961628;28;45515;-83
2024/01/19 08:07:40;;;;;;;4.65;3.80;;;21.00;24.50;;;;;;4975031;28;45688;-82
2024/01/19 08:10:06;;;;;;;4.20;3.70;;;21.00;24.50;;;;;;4968791;28;44791;-83
2024/01/19 08:12:32;;;;;;;4.23;3.77;;;21.00;24.60;;;;;;4950289;28;45042;-83
2024/01/19 08:14:58;;;;;;;3.92;3.53;;;21.00;24.50;;;;;;4977487;28;46161;-83
2024/01/19 08:17:24;;;;;;;4.07;3.50;;;21.00;24.50;;;;;;4938583;28;45313;-83
2024/01/19 08:19:51;;;;;;;4.18;3.78;;;21.00;24.50;;;;;;4982093;28;45351;-84
2024/01/19 08:22:17;;;;;;;4.07;3.67;;;21.00;24.60;;;;;;4977618;28;45497;-83
2024/01/19 08:24:43;;;;;;;4.45;3.45;;;21.00;24.60;;;;;;4985857;28;46280;-82
2024/01/19 08:27:09;;;;;;;4.18;3.40;;;21.00;24.60;;;;;;4947529;28;45255;-82
2024/01/19 08:29:35;;;;;;;3.78;3.30;;;20.90;24.50;;;;;;4968579;28;45347;-83
2024/01/19 08:32:01;;;;;;;4.38;3.60;;;20.90;24.50;;;;;;4979088;28;44947;-83
2024/01/19 08:34:27;;;;;;;4.57;3.80;;;20.90;24.50;;;;;;4971911;28;46257;-83
2024/01/19 08:36:53;;;;;;;3.70;3.30;;;20.90;24.60;;;;;;4987799;28;45468;-81
2024/01/19 08:39:19;;;;;;;4.03;3.63;;;20.90;24.60;;;;;;4986688;28;45307;-83
2024/01/19 08:41:47;;;;;;;4.18;3.50;;;20.90;24.60;;;;;;4970671;28;45593;-82
2024/01/19 08:44:13;;;;;;;3.95;3.53;;;20.90;24.60;;;;;;4984737;28;47307;-83
2024/01/19 08:46:45;;;;;;;3.63;3.33;;;20.90;24.60;;;;;;4939736;28;45992;-84
2024/01/19 08:49:11;;;;;;;4.18;3.63;;;20.90;24.60;;;;;;4965706;28;45659;-83
2024/01/19 08:51:38;;;;;;;3.58;3.28;;;20.90;24.60;;;;;;4953855;28;45651;-83
2024/01/19 08:54:04;;;;;;;4.18;3.40;;;20.90;24.60;;;;;;4948286;28;46074;-83
2024/01/19 08:56:30;;;;;;;3.80;3.47;;;20.90;24.60;;;;;;4965200;28;45627;-84
2024/01/19 08:58:57;;;;;;;3.30;3.00;;;20.80;24.60;;;;;;4961448;28;45292;-83
2024/01/19 09:01:22;;;;;;;3.63;3.10;;;20.80;24.60;;;;;;4968650;28;45433;-84
2024/01/19 09:03:48;;;;;;;3.93;3.50;;;20.80;24.60;;;;;;4941353;28;46420;-84
2024/01/19 09:06:14;;;;;;;3.72;3.20;;;20.80;24.60;;;;;;4986583;28;45464;-83
2024/01/19 09:08:41;;;;;;;3.75;3.25;;;20.80;24.60;;;;;;4960488;28;44986;-83
2024/01/19 09:11:10;;;;;;;4.30;3.60;;;20.80;24.60;;;;;;4947429;28;44792;-84
2024/01/19 09:13:37;;;;;;;3.97;3.22;;;20.80;24.60;;;;;;4948690;28;46188;-83
2024/01/19 09:16:08;;;;;;;3.95;3.33;;;20.80;24.60;;;;;;4938496;28;45584;-84
2024/01/19 09:18:37;;;;;;;4.47;3.22;;;20.80;24.60;;;;;;4952892;28;44741;-84
2024/01/19 09:21:03;;;;;;;3.20;2.90;;;20.80;24.60;;;;;;4971686;28;46227;-83
2024/01/19 09:23:30;;;;;;;3.25;2.95;;;20.80;24.70;;;;;;4998414;28;45092;-83
2024/01/19 09:25:55;;;;;;;3.85;3.40;;;20.70;24.60;;;;;;4983788;28;45207;-84
2024/01/19 09:28:21;;;;;;;4.17;3.30;;;20.70;24.70;;;;;;4967121;28;45479;-84
2024/01/19 09:30:47;;;;;;;3.97;3.57;;;20.70;24.70;;;;;;4955793;28;44889;-82
2024/01/19 09:33:16;;;;;;;4.13;3.60;;;20.70;24.70;;;;;;4984093;28;45799;-82
2024/01/19 09:35:42;;;;;;;5.13;4.40;;;20.70;24.70;;;;;;4938001;28;44843;-83
2024/01/19 09:38:07;;;;;;;4.95;4.45;;;20.70;24.70;;;;;;4964252;28;45136;-83
2024/01/19 09:40:34;;;;;;;4.97;4.40;;;20.70;24.70;;;;;;4959219;28;45154;-84
2024/01/19 09:43:00;;;;;;;4.68;4.00;;;20.70;24.80;;;;;;4961302;28;46099;-83
2024/01/19 09:45:26;;;;;;;5.10;4.60;;;20.70;24.70;;;;;;4950078;28;45915;-83
2024/01/19 09:48:11;;;;;;;4.93;4.43;;;20.60;24.70;;;;;;4971902;28;45029;-83
2024/01/19 09:50:38;;;;;;;5.22;4.47;;;20.60;24.70;;;;;;4978074;28;45539;-83
2024/01/19 09:53:18;;;;;;;5.05;4.50;;;20.60;24.70;;;;;;4975932;28;46480;-84
2024/01/19 09:55:47;;;;;;;5.20;4.47;;;20.60;24.80;;;;;;4967946;28;45058;-83
2024/01/19 09:58:12;;;;;;;5.15;4.20;;;20.60;24.70;;;;;;4985578;28;45443;-83
2024/01/19 10:00:38;;;;;;;5.00;4.47;;;20.60;24.70;;;;;;4980692;28;45057;-84
2024/01/19 10:03:05;;;;;;;5.10;4.50;;;20.60;24.80;;;;;;4954737;28;46237;-83
2024/01/19 10:05:31;;;;;;;5.28;4.50;;;20.60;24.80;;;;;;4949134;28;45443;-84
2024/01/19 10:07:57;;;;;;;5.18;4.20;;;20.60;24.80;;;;;;4974177;28;45330;-83
2024/01/19 10:10:23;;;;;;;4.70;4.07;;;20.60;24.80;;;;;;4963532;28;45471;-84
2024/01/19 10:12:49;;;;;;;4.53;4.10;;;20.60;24.80;;;;;;4997410;28;46185;-83
2024/01/19 10:15:16;;;;;;;4.90;3.93;;;20.60;24.80;;;;;;4958614;28;45057;-83
2024/01/19 10:17:42;;;;;;;5.25;4.10;;;20.60;24.80;;;;;;4978075;28;45464;-83
2024/01/19 10:20:13;;;;;;;4.35;3.70;;;20.60;24.80;;;;;;4970670;28;45495;-83
2024/01/19 10:22:39;;;;;;;4.50;4.10;;;20.60;24.80;;;;;;4938621;28;46187;-84
2024/01/19 10:25:05;;;;;;;4.53;3.90;;;20.60;24.80;;;;;;4982821;28;45001;-85
2024/01/19 10:27:41;;;;;;;4.40;4.00;;;20.60;24.80;;;;;;4967331;28;45548;-83
2024/01/19 10:30:11;;;;;;;4.80;3.70;;;20.60;24.80;;;;;;4989109;28;45469;-85
2024/01/19 10:32:39;;;;;;;4.63;4.05;;;20.60;24.80;;;;;;4980782;28;46207;-83
2024/01/19 10:35:11;;;;;;;4.88;4.03;;;20.70;24.80;;;;;;4961366;28;45147;-83
2024/01/19 10:37:37;;;;;;;4.22;3.83;;;20.60;24.80;;;;;;4955332;28;45201;-83
2024/01/19 10:40:22;;;;;;;4.60;4.03;;;20.70;24.80;;;;;;4978620;28;45637;-83
2024/01/19 10:42:58;;;;;;;4.82;4.05;;;20.70;24.80;;;;;;4960063;28;45091;-83
2024/01/19 10:45:29;;;;;;;4.25;3.80;;;20.70;24.80;;;;;;4973342;28;45380;-83
2024/01/19 10:47:57;;;;;;;4.60;4.00;;;20.70;24.80;;;;;;4957005;28;45421;-83
2024/01/19 10:50:26;;;;;;;5.80;4.50;;;20.70;24.80;;;;;;4939908;28;45267;-84
2024/01/19 10:52:52;;;;;;;5.30;4.40;;;20.70;24.80;;;;;;4955368;28;45874;-84
2024/01/19 10:55:21;;;;;;;5.20;4.28;;;20.80;24.80;;;;;;4954653;28;45258;-82
2024/01/19 10:58:11;;;;;;;5.50;4.20;;;20.80;24.80;;;;;;4982861;28;44828;-82
2024/01/19 11:00:38;;;;;;;4.25;3.83;;;20.80;24.80;;;;;;4965113;28;45132;-83
2024/01/19 11:03:04;;;;;;;5.00;4.20;;;20.80;24.80;;;;;;4982429;28;46648;-84
2024/01/19 11:05:29;;;;;;;6.10;4.47;;;20.80;24.80;;;;;;4945061;28;45235;-82
2024/01/19 11:08:18;;;;;;;5.32;4.20;;;20.90;24.80;;;;;;4959775;28;45576;-83
2024/01/19 11:10:43;;;;;;;5.10;4.13;;;20.90;24.80;;;;;;4954176;28;45581;-83
2024/01/19 11:13:10;;;;;;;4.33;3.93;;;20.90;24.80;;;;;;4947341;28;45948;-82
2024/01/19 11:15:51;;;;;;;4.45;4.00;;;20.90;24.80;;;;;;4964647;28;45537;-83
2024/01/19 11:18:17;;;;;;;4.57;4.03;;;20.90;24.70;;;;;;4982959;28;45197;-84
2024/01/19 11:20:42;;;;;;;4.32;3.92;;;21.00;24.70;;;;;;4969765;28;45201;-82
2024/01/19 11:23:08;;;;;;;5.30;3.97;;;21.00;24.70;;;;;;4946333;28;47310;-83
2024/01/19 11:25:47;;;;;;;4.30;3.90;;;21.00;24.70;;;;;;4974010;28;45720;-82
2024/01/19 11:28:34;;;;;;;4.28;3.60;;;21.00;24.70;;;;;;4994775;28;45481;-82
2024/01/19 11:31:11;;;;;;;5.45;4.05;;;21.10;24.70;;;;;;4984590;28;45494;-82
2024/01/19 11:33:37;;;;;;;4.35;3.60;;;21.10;24.70;;;;;;4962172;28;46545;-82
2024/01/19 11:36:04;;;;;;;4.43;3.43;;;21.10;24.70;;;;;;4982924;28;45304;-82
2024/01/19 11:38:47;;;;;;;4.00;3.60;;;21.20;24.70;;;;;;4979583;28;45625;-83
2024/01/19 11:41:32;;;;;;;3.93;3.53;;;21.20;24.70;;;;;;4993001;28;45040;-81
2024/01/19 11:43:59;;;;;;;5.15;3.80;;;21.20;24.70;;;;;;4996291;28;45125;-82
2024/01/19 11:46:45;;;;;;;4.93;3.75;;;21.30;24.80;;;;;;4984379;28;44901;-81
2024/01/19 11:49:29;;;;;;;3.78;3.20;;;21.30;24.70;;;;;;4994418;28;45148;-80
2024/01/19 11:51:56;;;;;;;4.10;3.70;;;21.30;24.70;;;;;;4979364;28;45293;-81
2024/01/19 11:54:33;;;;;;;3.83;3.30;;;21.30;24.70;;;;;;4973832;28;46465;-82
2024/01/19 11:57:17;;;;;;;4.37;3.33;;;21.30;24.70;;;;;;4961719;28;45314;-83
2024/01/19 11:59:43;;;;;;;3.50;3.08;;;21.40;24.70;;;;;;4985934;28;44641;-82
2024/01/19 12:02:26;;;;;;;3.70;3.20;;;21.40;24.70;;;;;;4981318;28;45357;-83
2024/01/19 12:04:52;;;;;;;3.72;3.20;;;21.40;24.70;;;;;;4977006;28;46376;-84
2024/01/19 12:07:19;;;;;;;4.20;3.33;;;21.40;24.60;;;;;;4971850;28;45227;-83
2024/01/19 12:09:46;;;;;;;4.25;3.28;;;21.50;24.70;;;;;;4952591;28;44931;-82
2024/01/19 12:12:11;;;;;;;3.78;3.05;;;21.50;24.70;;;;;;4947546;28;45716;-83
2024/01/19 12:14:37;;;;;;;4.47;3.40;;;21.50;24.60;;;;;;5003893;28;45380;-82
2024/01/19 12:17:03;;;;;;;3.40;3.10;;;21.50;24.60;;;;;;4960152;28;45596;-82
2024/01/19 12:19:29;;;;;;;3.80;3.25;;;21.50;24.60;;;;;;4991477;28;45728;-84
2024/01/19 12:21:58;;;;;;;5.05;3.40;;;21.60;24.60;;;;;;4968358;28;45402;-82
2024/01/19 12:24:24;;;;;;;4.10;3.43;;;21.60;24.60;;;;;;4990480;28;45076;-82
2024/01/19 12:26:50;;;;;;;3.83;3.28;;;21.70;24.60;;;;;;4984172;28;45247;-82
2024/01/19 12:29:30;;;;;;;3.85;3.17;;;21.70;24.60;;;;;;4965273;28;45223;-82
2024/01/19 12:32:09;;;;;;;3.67;3.30;;;21.70;24.50;;;;;;4989021;28;45576;-83
2024/01/19 12:34:35;;;;;;;3.35;3.00;;;21.70;24.50;;;;;;4960996;28;46289;-82
2024/01/19 12:37:01;;;;;;;4.10;3.20;;;21.70;24.50;;;;;;4956257;28;45286;-82
2024/01/19 12:39:27;;;;;;;5.13;3.10;;;21.70;24.50;;;;;;4977439;28;45679;-82
2024/01/19 12:42:05;;;;;;;3.50;3.20;;;21.80;24.50;;;;;;4989717;28;45333;-83
2024/01/19 12:44:34;;;;;;;3.80;3.40;;;21.80;24.40;;;;;;4989407;28;46355;-83
2024/01/19 12:47:00;;;;;;;4.50;3.00;;;21.80;24.40;;;;;;4973502;28;45788;-82
2024/01/19 12:49:26;;;;;;;3.75;3.38;;;21.80;24.40;;;;;;4982233;28;46089;-83
2024/01/19 12:51:52;;;;;;;3.63;3.10;;;21.80;24.40;;;;;;4959062;28;44986;-83
2024/01/19 12:54:20;;;;;;;3.53;3.13;;;21.90;24.40;;;;;;4962417;28;45668;-83
2024/01/19 12:56:48;;;;;;;3.28;2.97;;;22.00;24.40;;;;;;4987515;28;45206;-83
2024/01/19 12:59:16;;;;;;;3.90;3.35;;;22.00;24.30;;;;;;4963519;28;45240;-82
2024/01/19 13:01:46;;;;;;;3.27;2.97;;;22.00;24.30;;;;;;4969558;28;45177;-85
2024/01/19 13:04:13;;;;;;;3.90;3.07;;;22.00;24.30;;;;;;4959979;28;47088;-82
2024/01/19 13:06:41;;;;;;;3.95;3.20;;;22.10;24.30;;;;;;4955540;28;44720;-83
2024/01/19 13:09:11;;;;;;;3.40;3.05;;;22.10;24.30;;;;;;4956745;28;45689;-82
2024/01/19 13:11:37;;;;;;;3.55;3.17;;;22.10;24.30;;;;;;4956090;28;45297;-82
2024/01/19 13:14:03;;;;;;;3.43;2.80;;;22.10;24.30;;;;;;4988870;28;46632;-83
2024/01/19 13:16:29;;;;;;;3.45;2.90;;;22.10;24.30;;;;;;4959895;28;45258;-84
2024/01/19 13:19:07;;;;;;;4.07;3.20;;;22.10;24.20;;;;;;4947371;28;45562;-83
2024/01/19 13:21:33;;;;;;;3.58;2.85;;;22.10;24.40;;;;;;4972500;28;45639;-83
2024/01/19 13:23:59;;;;;;;4.30;3.00;;;22.10;24.20;;;;;;4948213;28;46153;-83
2024/01/19 13:26:24;;;;;;;3.05;2.72;;;22.10;24.20;;;;;;4954077;28;45540;-82
2024/01/19 13:28:51;;;;;;;3.40;2.60;;;22.10;24.20;;;;;;4964683;28;45044;-83
2024/01/19 13:31:16;;;;;;;4.33;2.50;;;22.10;24.20;;;;;;4981228;28;46403;-82
2024/01/19 13:33:46;;;;;;;3.63;2.85;;;22.20;24.20;;;;;;4958947;28;47159;-82
2024/01/19 13:36:13;;;;;;;3.95;2.78;;;22.20;24.10;;;;;;4963535;28;45280;-82
2024/01/19 13:38:40;;;;;;;3.10;2.70;;;22.20;24.10;;;;;;4978343;28;45402;-83
2024/01/19 13:41:07;;;;;;;4.30;2.85;;;22.20;24.10;;;;;;4975519;28;45713;-82
2024/01/19 13:43:33;;;;;;;4.20;2.42;;;22.20;24.10;;;;;;4944593;28;45999;-81
2024/01/19 13:45:59;;;;;;;3.35;2.60;;;22.20;24.10;;;;;;4956347;28;46244;-82
2024/01/19 13:48:26;;;;;;;2.95;2.50;;;22.30;24.10;;;;;;4977883;28;45500;-82
2024/01/19 13:50:52;;;;;;;2.95;2.00;;;22.20;24.10;;;;;;4966375;28;44903;-83
2024/01/19 13:53:19;;;;;;;2.60;2.40;;;22.30;24.10;;;;;;4958990;28;48834;-85
2024/01/19 13:55:45;;;;;;;2.95;2.15;;;22.30;24.10;;;;;;4989229;28;45060;-83
2024/01/19 13:58:11;;;;;;;2.50;2.20;;;22.30;24.00;;;;;;4960853;28;45797;-83
2024/01/19 14:00:37;;;;;;;3.03;2.30;;;22.30;24.00;;;;;;4954574;28;45463;-83
2024/01/19 14:03:03;;;;;;;2.67;2.10;;;22.30;24.00;;;;;;4965610;28;45216;-82
2024/01/19 14:05:29;;;;;;;2.25;1.90;;;22.30;24.10;;;;;;4940352;28;45340;-82
2024/01/19 14:07:55;;;;;;;2.43;1.90;;;22.30;23.90;;;;;;4972342;28;46190;-83
2024/01/19 14:10:20;;;;;;;3.63;2.30;;;22.30;23.90;;;;;;4942472;28;46179;-83
2024/01/19 14:12:47;;;;;;;2.90;2.00;;;22.30;23.90;;;;;;4986624;28;46782;-82
2024/01/19 14:15:15;;;;;;;2.93;2.10;;;22.30;23.90;;;;;;4973923;28;45283;-84
2024/01/19 14:17:41;;;;;;;2.53;2.00;;;22.40;24.00;;;;;;4966356;28;46196;-83
2024/01/19 14:20:08;;;;;;;2.28;2.08;;;22.30;23.90;;;;;;4969519;28;45612;-82
2024/01/19 14:22:34;;;;;;;2.72;2.00;;;22.40;23.90;;;;;;4957343;28;45441;-83
2024/01/19 14:25:00;;;;;;;2.22;1.77;;;22.30;23.90;;;;;;4947026;28;44954;-83
2024/01/19 14:27:29;;;;;;;2.80;2.03;;;22.30;23.90;;;;;;4975062;28;45631;-80
2024/01/19 14:29:58;;;;;;;3.08;1.60;;;22.30;23.80;;;;;;4993938;28;45422;-83
2024/01/19 14:32:24;;;;;;;2.95;1.90;;;22.40;23.90;;;;;;4982201;28;45586;-83
2024/01/19 14:34:50;;;;;;;2.50;1.83;;;22.40;23.90;;;;;;4969184;28;45353;-83
2024/01/19 14:37:16;;;;;;;2.37;1.80;;;22.40;23.90;;;;;;4967148;28;45322;-83
2024/01/19 14:39:42;;;;;;;2.30;1.88;;;22.40;23.90;;;;;;4972560;28;45194;-82
2024/01/19 14:42:07;;;;;;;3.00;2.10;;;22.40;23.90;;;;;;4969328;28;46530;-82
2024/01/19 14:44:34;;;;;;;3.15;1.63;;;22.40;23.90;;;;;;4973949;28;45156;-84
2024/01/19 14:47:00;;;;;;;3.20;1.80;;;22.40;24.30;;;;;;4953051;28;45333;-84
2024/01/19 14:49:29;;;;;;;2.07;1.80;;;22.40;23.80;;;;;;4969756;28;45318;-83
2024/01/19 14:51:56;;;;;;;2.60;1.98;;;22.40;23.80;;;;;;4953069;28;45742;-83
2024/01/19 14:54:23;;;;;;;2.38;1.75;;;22.30;23.80;;;;;;4960796;28;45389;-83
2024/01/19 14:56:49;;;;;;;2.60;1.88;;;22.40;23.80;;;;;;4952659;28;45665;-81
2024/01/19 14:59:15;;;;;;;2.37;1.80;;;22.40;23.80;;;;;;4973872;28;45090;-83
2024/01/19 15:01:41;;;;;;;3.03;2.00;;;22.40;23.80;;;;;;4969905;28;46130;-83
2024/01/19 15:04:07;;;;;;;2.40;1.93;;;22.40;23.80;;;;;;4989314;28;45459;-83
2024/01/19 15:06:33;;;;;;;3.33;2.00;;;22.40;23.80;;;;;;4956941;28;45538;-83
2024/01/19 15:08:58;;;;;;;2.42;1.88;;;22.40;23.80;;;;;;4974051;28;45646;-83
2024/01/19 15:11:24;;;;;;;2.90;2.00;;;22.30;23.70;;;;;;4945172;28;46135;-83
2024/01/19 15:13:51;;;;;;;3.10;2.10;;;22.40;23.80;;;;;;4972037;28;45562;-82
2024/01/19 15:16:17;;;;;;;2.90;1.93;;;22.30;23.70;;;;;;4971967;28;45676;-84
2024/01/19 15:18:43;;;;;;;2.42;2.22;;;22.40;23.80;;;;;;4938300;28;45313;-82
2024/01/19 15:21:09;;;;;;;2.40;2.20;;;22.40;23.80;;;;;;4982327;28;46899;-82
2024/01/19 15:23:37;;;;;;;3.87;2.60;;;22.30;23.80;;;;;;4968707;28;45318;-82
2024/01/19 15:26:04;;;;;;;3.38;2.40;;;22.40;23.80;;;;;;4941685;28;45220;-82
2024/01/19 15:28:29;;;;;;;3.60;2.55;;;22.40;23.80;;;;;;4972860;28;45349;-84
2024/01/19 15:30:56;;;;;;;3.17;2.42;;;22.40;23.80;;;;;;4954612;28;45328;-83
2024/01/19 15:33:22;;;;;;;3.92;2.60;;;22.30;23.70;;;;;;5001824;28;45861;-83
2024/01/19 15:35:48;;;;;;;4.17;2.53;;;22.30;23.70;;;;;;4940401;28;45250;-83
2024/01/19 15:38:14;;;;;;;3.00;2.40;;;22.40;23.70;;;;;;4988299;28;45384;-83
2024/01/19 15:40:39;;;;;;;3.10;2.65;;;22.40;23.70;;;;;;4983235;28;46476;-84
2024/01/19 15:43:05;;;;;;;3.13;2.50;;;22.30;23.70;;;;;;4942088;28;45290;-84
2024/01/19 15:45:32;;;;;;;3.73;2.60;;;22.30;23.70;;;;;;4954667;28;44998;-83
2024/01/19 15:47:58;;;;;;;3.17;2.75;;;22.30;23.70;;;;;;4985122;28;45133;-83
2024/01/19 15:50:23;;;;;;;2.63;2.30;;;22.30;23.70;;;;;;4972364;28;46945;-81
2024/01/19 15:52:51;;;;;;;3.22;2.63;;;22.30;23.70;;;;;;4969438;28;45312;-85
2024/01/19 15:55:17;;;;;;;3.00;2.42;;;22.30;23.70;;;;;;4957847;28;45365;-84
2024/01/19 15:57:44;;;;;;;3.27;2.40;;;22.30;23.70;;;;;;4972672;28;45387;-84
2024/01/19 16:00:10;;;;;;;3.78;2.45;;;22.30;23.70;;;;;;4939563;28;46152;-83
2024/01/19 16:02:36;;;;;;;3.25;2.40;;;22.30;23.70;;;;;;4951632;28;45434;-85
2024/01/19 16:05:05;;;;;;;2.80;2.30;;;22.30;23.70;;;;;;4986705;28;45215;-83
2024/01/19 16:07:31;;;;;;;3.80;2.50;;;22.30;23.70;;;;;;4957515;28;45385;-84
2024/01/19 16:09:57;;;;;;;2.25;2.03;;;22.30;23.70;;;;;;4947471;28;46189;-84
2024/01/19 16:12:24;;;;;;;3.10;2.10;;;22.30;23.70;;;;;;4959404;28;45320;-84
2024/01/19 16:14:53;;;;;;;2.65;2.15;;;22.30;23.70;;;;;;4958816;28;46180;-83
2024/01/19 16:17:19;;;;;;;2.80;2.30;;;22.30;23.70;;;;;;4966816;28;45174;-83
2024/01/19 16:19:51;;;;;;;2.92;2.20;;;22.30;23.70;;;;;;4944523;28;46073;-83
2024/01/19 16:22:18;;;;;;;2.70;2.13;;;22.30;23.70;;;;;;4968864;28;45724;-83
2024/01/19 16:24:44;;;;;;;3.43;2.37;;;22.30;23.70;;;;;;4969813;28;45103;-82
2024/01/19 16:27:10;;;;;;;2.30;2.03;;;22.30;23.80;;;;;;4990883;28;45300;-84
2024/01/19 16:29:35;;;;;;;2.67;2.10;;;22.30;23.70;;;;;;4942110;28;47187;-84
2024/01/19 16:32:02;;;;;;;3.33;2.28;;;22.20;23.70;;;;;;4951633;28;45485;-84
2024/01/19 16:34:28;;;;;;;2.88;2.20;;;22.20;23.70;;;;;;5003387;28;44733;-82
2024/01/19 16:36:54;;;;;;;2.92;2.13;;;22.20;23.70;;;;;;4970762;28;45173;-83
2024/01/19 16:39:23;;;;;;;2.80;2.20;;;22.20;23.70;;;;;;4974974;28;47374;-84
2024/01/19 16:41:52;;;;;;;2.57;2.00;;;22.30;23.70;;;;;;4939783;28;46025;-83
2024/01/19 16:44:18;;;;;;;3.13;2.10;;;22.30;23.70;;;;;;4973753;28;45500;-82
2024/01/19 16:46:44;;;;;;;3.35;2.20;;;22.20;23.70;;;;;;4968991;28;45435;-83
2024/01/19 16:49:10;;;;;;;2.17;1.97;;;22.20;23.70;;;;;;4940611;28;46398;-82